Time;durP1;ratioP1;P1;durP2;ratioP2;P2;SDS_P1;SDS_P2;PMS_P1;PMS_P2;Temp;Humidity;BMP_temperature;BMP_pressure;BME280_temperature;BME280_humidity;BME280_pressure;Samples;Min_cycle;Max_cycle;Signal;HPM_P1;HPM_P2
2021/03/12 00:00:30;;;;;;;3.70;2.70;;;6.50;99.90;;;-141.85;100.00;63675.41;5032549;28;20239;-62
2021/03/12 00:02:58;;;;;;;5.33;2.30;;;6.50;99.90;;;-141.85;100.00;63675.41;5032305;28;20190;-64
2021/03/12 00:05:25;;;;;;;2.80;2.13;;;6.40;99.90;;;-141.85;100.00;63675.41;5032517;28;20201;-63
2021/03/12 00:07:54;;;;;;;3.70;1.97;;;6.40;99.90;;;-141.85;100.00;63675.41;5032520;28;20221;-62
2021/03/12 00:10:25;;;;;;;4.30;2.10;;;6.40;99.90;;;-141.85;100.00;63675.41;5033326;28;20215;-62
2021/03/12 00:12:53;;;;;;;3.37;2.03;;;6.40;99.90;;;-141.85;100.00;63675.41;5052201;28;20331;-63
2021/03/12 00:15:22;;;;;;;4.53;1.73;;;6.40;99.90;;;-141.85;100.00;63675.41;5052787;28;20277;-62
2021/03/12 00:17:50;;;;;;;5.73;2.03;;;6.30;99.90;;;-141.85;100.00;63675.41;5056042;28;20244;-62
2021/03/12 00:20:22;;;;;;;3.40;1.73;;;6.30;99.90;;;-141.85;100.00;63675.41;5049391;28;20585;-63
2021/03/12 00:22:50;;;;;;;1.60;1.30;;;6.30;99.90;;;-141.85;100.00;63675.41;5036022;28;20620;-62
2021/03/12 00:25:20;;;;;;;3.83;1.50;;;6.20;99.90;;;-141.85;100.00;63675.41;5035916;28;20664;-64
2021/03/12 00:27:48;;;;;;;1.97;1.13;;;6.20;99.90;;;-141.85;100.00;63675.41;5035876;28;20371;-62
2021/03/12 00:30:16;;;;;;;2.20;1.67;;;6.20;99.90;;;-141.85;100.00;63675.41;5035790;28;20205;-63
2021/03/12 00:32:43;;;;;;;1.73;1.30;;;6.00;99.90;;;-141.85;100.00;63675.41;5035793;28;20214;-63
2021/03/12 00:35:11;;;;;;;2.60;1.20;;;5.90;99.90;;;-141.85;100.00;63675.41;5035779;28;20323;-62
2021/03/12 00:37:38;;;;;;;2.73;1.27;;;5.90;99.90;;;-141.85;100.00;63675.41;5035952;28;20193;-63
2021/03/12 00:40:12;;;;;;;2.73;1.07;;;5.80;99.90;;;-141.85;100.00;63675.41;5035781;28;20696;-62
2021/03/12 00:42:39;;;;;;;2.93;1.50;;;5.80;99.90;;;-141.85;100.00;63675.41;5035817;28;20564;-63
2021/03/12 00:45:13;;;;;;;2.33;1.30;;;5.80;99.90;;;-141.85;100.00;63675.41;5035814;28;20277;-62
2021/03/12 00:47:41;;;;;;;3.03;2.17;;;5.80;99.90;;;-141.85;100.00;63675.41;5035500;28;20244;-63
2021/03/12 00:50:11;;;;;;;2.17;1.40;;;5.70;99.90;;;-141.85;100.00;63675.41;5035377;28;20548;-63
2021/03/12 00:52:38;;;;;;;2.43;1.50;;;5.60;99.90;;;-141.85;100.00;63675.41;5035400;28;20718;-63
2021/03/12 00:55:07;;;;;;;1.40;1.10;;;5.50;99.90;;;-141.85;100.00;63675.41;5035500;28;20266;-62
2021/03/12 00:57:34;;;;;;;1.30;1.00;;;5.60;99.90;;;-141.85;100.00;63675.41;5035438;28;20227;-63
2021/03/12 01:00:01;;;;;;;1.97;0.90;;;5.70;99.90;;;-141.85;100.00;63675.41;5035395;28;20271;-62
2021/03/12 01:02:29;;;;;;;2.70;1.10;;;5.70;99.90;;;-141.85;100.00;63675.41;5035218;28;20211;-63
2021/03/12 01:04:56;;;;;;;2.03;1.43;;;5.80;99.90;;;-141.85;100.00;63675.41;5035506;28;20197;-63
2021/03/12 01:07:23;;;;;;;2.40;1.47;;;5.80;99.90;;;-141.85;100.00;63675.41;5035477;28;20234;-63
2021/03/12 01:09:50;;;;;;;1.17;1.00;;;5.80;99.90;;;-141.85;100.00;63675.41;5035325;28;20291;-62
2021/03/12 01:12:27;;;;;;;1.33;1.17;;;5.80;99.90;;;-141.85;100.00;63675.41;5034982;28;20198;-63
2021/03/12 01:14:54;;;;;;;3.23;1.87;;;5.90;99.90;;;-141.85;100.00;63675.41;5035169;28;20713;-63
2021/03/12 01:17:21;;;;;;;2.90;1.30;;;6.00;99.90;;;-141.85;100.00;63675.41;5034977;28;20254;-64
2021/03/12 01:19:49;;;;;;;3.93;1.47;;;6.00;99.90;;;-141.85;100.00;63675.41;5035229;28;20240;-64
2021/03/12 01:22:16;;;;;;;1.90;0.80;;;6.10;99.90;;;-141.85;100.00;63675.41;5035112;28;20292;-64
2021/03/12 01:24:43;;;;;;;1.40;0.80;;;6.00;99.90;;;-141.85;100.00;63675.41;5034799;28;20196;-64
2021/03/12 01:27:11;;;;;;;1.33;0.60;;;6.00;99.90;;;-141.85;100.00;63675.41;5033929;28;20331;-63
2021/03/12 01:29:38;;;;;;;1.17;0.60;;;5.90;99.90;;;-141.85;100.00;63675.41;5034842;28;20232;-64
2021/03/12 01:32:06;;;;;;;0.97;0.70;;;5.70;99.90;;;-141.85;100.00;63675.41;5034757;28;20272;-63
2021/03/12 01:34:34;;;;;;;1.27;0.60;;;5.60;99.90;;;-141.85;100.00;63675.41;5034703;28;20560;-63
2021/03/12 01:37:02;;;;;;;0.60;0.60;;;5.50;99.90;;;-141.85;100.00;63675.41;5054265;28;20236;-63
2021/03/12 01:39:29;;;;;;;1.73;0.80;;;5.50;99.90;;;-141.85;100.00;63675.41;5055680;28;20743;-63
2021/03/12 01:41:56;;;;;;;2.63;0.90;;;5.40;99.90;;;-141.85;100.00;63675.41;5057218;28;20197;-62
2021/03/12 01:44:23;;;;;;;0.83;0.70;;;5.40;99.90;;;-141.85;100.00;63675.41;5055184;28;20293;-63
2021/03/12 01:46:50;;;;;;;1.50;1.00;;;5.30;99.90;;;-141.85;100.00;63675.41;5053875;28;20242;-63
2021/03/12 01:49:17;;;;;;;3.83;1.13;;;5.30;99.90;;;-141.85;100.00;63675.41;5054669;28;20203;-63
2021/03/12 01:51:44;;;;;;;1.70;1.10;;;5.30;99.90;;;-141.85;100.00;63675.41;5054246;28;20648;-63
2021/03/12 01:54:13;;;;;;;2.00;1.10;;;5.30;99.90;;;-141.85;100.00;63675.41;5054094;28;20770;-64
2021/03/12 01:56:40;;;;;;;1.30;1.10;;;5.40;99.90;;;-141.85;100.00;63675.41;5054041;28;20758;-63
2021/03/12 01:59:07;;;;;;;1.53;1.07;;;5.40;99.90;;;-141.85;100.00;63675.41;5054128;28;20296;-62
2021/03/12 02:01:34;;;;;;;2.90;1.60;;;5.40;99.90;;;-141.85;100.00;63675.41;5053625;28;20229;-63
2021/03/12 02:04:02;;;;;;;2.77;1.50;;;5.40;99.90;;;-141.85;100.00;63675.41;5054049;28;20235;-64
2021/03/12 02:06:31;;;;;;;4.50;1.60;;;5.40;99.90;;;-141.85;100.00;63675.41;5054178;28;20660;-62
2021/03/12 02:08:58;;;;;;;2.70;1.50;;;5.40;99.90;;;-141.85;100.00;63675.41;5054026;28;20558;-63
2021/03/12 02:11:26;;;;;;;1.70;1.60;;;5.40;99.90;;;-141.85;100.00;63675.41;5053820;28;20738;-63
2021/03/12 02:14:02;;;;;;;2.73;1.40;;;5.40;99.90;;;-141.85;100.00;63675.41;5053697;28;20727;-63
2021/03/12 02:16:37;;;;;;;2.30;1.60;;;5.40;99.90;;;-141.85;100.00;63675.41;5053796;28;20276;-63
2021/03/12 02:19:25;;;;;;;3.10;1.43;;;5.40;99.90;;;-141.85;100.00;63675.41;5054145;28;20263;-63
2021/03/12 02:21:55;;;;;;;3.07;1.57;;;5.40;99.90;;;-141.85;100.00;63675.41;5034171;28;20312;-62
2021/03/12 02:24:31;;;;;;;1.60;1.40;;;5.40;99.90;;;-141.85;100.00;63675.41;5034049;28;20191;-63
2021/03/12 02:27:06;;;;;;;2.30;1.50;;;5.50;99.90;;;-141.85;100.00;63675.41;5033876;28;20679;-63
2021/03/12 02:29:35;;;;;;;1.83;1.43;;;5.50;99.90;;;-141.85;100.00;63675.41;5033692;28;20314;-63
2021/03/12 02:32:05;;;;;;;3.10;2.17;;;5.50;99.90;;;-141.85;100.00;63675.41;5033592;28;20298;-62
2021/03/12 02:34:38;;;;;;;3.80;3.00;;;5.60;99.90;;;-141.85;100.00;63675.41;5033847;28;20192;-63
2021/03/12 02:37:08;;;;;;;5.20;2.77;;;5.50;99.90;;;-141.85;100.00;63675.41;5013982;28;20188;-62
2021/03/12 02:39:43;;;;;;;3.87;3.23;;;5.50;99.90;;;-141.85;100.00;63675.41;5012457;28;20225;-63
2021/03/12 02:42:14;;;;;;;4.70;2.97;;;5.50;99.90;;;-141.85;100.00;63675.41;5013879;28;20176;-62
2021/03/12 02:44:43;;;;;;;2.90;2.40;;;5.50;99.90;;;-141.85;100.00;63675.41;5013498;28;20633;-63
2021/03/12 02:47:18;;;;;;;2.63;2.10;;;5.60;99.90;;;-141.85;100.00;63675.41;5013193;28;20260;-62
2021/03/12 02:49:47;;;;;;;3.87;1.63;;;5.60;99.90;;;-141.85;100.00;63675.41;5013561;28;20193;-63
2021/03/12 02:52:15;;;;;;;2.67;1.37;;;5.60;99.90;;;-141.85;100.00;63675.41;5013537;28;20244;-63
2021/03/12 02:54:44;;;;;;;2.27;1.30;;;5.60;99.90;;;-141.85;100.00;63675.41;5013759;28;20293;-63
2021/03/12 02:57:14;;;;;;;2.40;1.50;;;5.50;99.90;;;-141.85;100.00;63675.41;5013409;28;20255;-62
2021/03/12 02:59:42;;;;;;;3.00;1.03;;;5.50;99.90;;;-141.85;100.00;63675.41;5013102;28;20696;-63
2021/03/12 03:02:10;;;;;;;2.13;1.20;;;5.50;99.90;;;-141.85;100.00;63675.41;5013324;28;20199;-62
2021/03/12 03:04:40;;;;;;;1.50;0.97;;;5.60;99.90;;;-141.85;100.00;63675.41;5013707;28;20218;-62
2021/03/12 03:07:11;;;;;;;2.37;0.80;;;5.50;99.90;;;-141.85;100.00;63675.41;5013205;28;20318;-62
2021/03/12 03:09:40;;;;;;;2.73;1.07;;;5.50;99.90;;;-141.85;100.00;63675.41;5013523;28;20263;-62
2021/03/12 03:12:13;;;;;;;1.37;0.80;;;5.50;99.90;;;-141.85;100.00;63675.41;5013330;28;20278;-62
2021/03/12 03:14:44;;;;;;;1.20;1.00;;;5.50;99.90;;;-141.85;100.00;63675.41;5013003;28;20742;-62
2021/03/12 03:17:13;;;;;;;1.20;0.97;;;5.50;99.90;;;-141.85;100.00;63675.41;5013135;28;20279;-62
2021/03/12 03:19:45;;;;;;;1.20;0.83;;;5.50;99.90;;;-141.85;100.00;63675.41;5012994;28;20202;-63
2021/03/12 03:22:13;;;;;;;2.57;1.17;;;5.50;99.90;;;-141.85;100.00;63675.41;5013148;28;20224;-63
2021/03/12 03:24:40;;;;;;;3.00;1.30;;;5.50;99.90;;;-141.85;100.00;63675.41;5013183;28;20329;-64
2021/03/12 03:27:08;;;;;;;2.47;1.17;;;5.50;99.90;;;-141.85;100.00;63675.41;5012652;28;20256;-64
2021/03/12 03:29:35;;;;;;;3.37;1.20;;;5.50;99.90;;;-141.85;100.00;63675.41;5013002;28;20295;-64
2021/03/12 03:32:05;;;;;;;2.53;1.50;;;5.60;99.90;;;-141.85;100.00;63675.41;5012943;28;20301;-63
2021/03/12 03:34:32;;;;;;;2.87;1.43;;;5.50;99.90;;;-141.85;100.00;63675.41;5013278;28;20241;-63
2021/03/12 03:36:59;;;;;;;3.20;1.83;;;5.60;99.90;;;-141.85;100.00;63675.41;5051153;28;20768;-63
2021/03/12 03:39:27;;;;;;;5.50;2.17;;;5.50;99.90;;;-141.85;100.00;63675.41;5052751;28;20285;-63
2021/03/12 03:42:00;;;;;;;5.53;2.70;;;5.60;99.90;;;-141.85;100.00;63675.41;5052579;28;20235;-63
2021/03/12 03:44:31;;;;;;;4.30;2.90;;;5.50;99.90;;;-141.85;100.00;63675.41;5052240;28;20645;-63
2021/03/12 03:47:03;;;;;;;4.70;3.20;;;5.50;99.90;;;-141.85;100.00;63675.41;5052091;28;20774;-64
2021/03/12 03:49:35;;;;;;;5.50;3.10;;;5.50;99.90;;;-141.85;100.00;63675.41;5052616;28;20193;-63
2021/03/12 03:52:05;;;;;;;8.47;5.30;;;5.60;99.90;;;-141.85;100.00;63675.41;5058566;28;20220;-63
2021/03/12 03:54:33;;;;;;;9.00;5.10;;;5.50;99.90;;;-141.85;100.00;63675.41;5059156;28;20215;-62
2021/03/12 03:57:02;;;;;;;7.60;5.40;;;5.50;99.90;;;-141.85;100.00;63675.41;5058987;28;20212;-63
2021/03/12 03:59:31;;;;;;;8.43;4.53;;;5.50;99.90;;;-141.85;100.00;63675.41;5059041;28;20285;-62
2021/03/12 04:02:01;;;;;;;5.03;3.20;;;5.50;99.90;;;-141.85;100.00;63675.41;5058630;28;20667;-62
2021/03/12 04:04:30;;;;;;;5.97;3.37;;;5.50;99.90;;;-141.85;100.00;63675.41;5059143;28;20293;-62
2021/03/12 04:06:58;;;;;;;3.43;2.63;;;5.50;99.90;;;-141.85;100.00;63675.41;5059083;28;20227;-63
2021/03/12 04:09:25;;;;;;;3.87;2.70;;;5.40;99.90;;;-141.85;100.00;63675.41;5058655;28;20610;-63
2021/03/12 04:11:54;;;;;;;4.47;2.67;;;5.40;99.90;;;-141.85;100.00;63675.41;5058931;28;20287;-64
2021/03/12 04:14:42;;;;;;;5.00;2.90;;;5.40;99.90;;;-141.85;100.00;63675.41;5058910;28;20191;-62
2021/03/12 04:17:10;;;;;;;4.63;2.70;;;5.30;99.90;;;-141.85;100.00;63675.41;5058442;28;20678;-63
2021/03/12 04:19:40;;;;;;;4.23;2.60;;;5.40;99.90;;;-141.85;100.00;63675.41;5057405;28;20207;-62
2021/03/12 04:22:08;;;;;;;2.77;2.23;;;5.40;99.90;;;-141.85;100.00;63675.41;5037868;28;20294;-63
2021/03/12 04:24:37;;;;;;;3.77;2.27;;;5.40;99.90;;;-141.85;100.00;63675.41;5037113;28;20734;-63
2021/03/12 04:27:07;;;;;;;4.90;2.10;;;5.40;99.90;;;-141.85;100.00;63675.41;5038153;28;20315;-62
2021/03/12 04:29:34;;;;;;;2.67;1.70;;;5.40;99.90;;;-141.85;100.00;63675.41;5038522;28;20287;-63
2021/03/12 04:32:02;;;;;;;2.20;1.90;;;5.40;99.90;;;-141.85;100.00;63675.41;5038944;28;20603;-62
2021/03/12 04:34:29;;;;;;;1.60;1.50;;;5.30;99.90;;;-141.85;100.00;63675.41;5038960;28;20212;-63
2021/03/12 04:36:59;;;;;;;3.70;2.57;;;5.30;99.90;;;-141.85;100.00;63675.41;5038528;28;20272;-63
2021/03/12 04:39:26;;;;;;;3.57;2.87;;;5.30;99.90;;;-141.85;100.00;63675.41;5038927;28;20635;-62
2021/03/12 04:41:53;;;;;;;3.30;2.90;;;5.20;99.90;;;-141.85;100.00;63675.41;5038539;28;20295;-63
2021/03/12 04:44:21;;;;;;;4.17;2.93;;;5.20;99.90;;;-141.85;100.00;63675.41;5038665;28;20246;-63
2021/03/12 04:46:50;;;;;;;5.73;3.10;;;5.10;99.90;;;-141.85;100.00;63675.41;5038742;28;20264;-63
2021/03/12 04:49:20;;;;;;;3.10;2.40;;;5.10;99.90;;;-141.85;100.00;63675.41;5038835;28;20243;-62
2021/03/12 04:51:47;;;;;;;4.00;2.60;;;5.10;99.90;;;-141.85;100.00;63675.41;5038501;28;20207;-64
2021/03/12 04:54:17;;;;;;;6.17;3.00;;;5.10;99.90;;;-141.85;100.00;63675.41;5038679;28;20247;-63
2021/03/12 04:56:44;;;;;;;3.50;2.57;;;5.30;99.90;;;-141.85;100.00;63675.41;5038438;28;20636;-64
2021/03/12 04:59:13;;;;;;;2.53;2.03;;;5.40;99.90;;;-141.85;100.00;63675.41;5038198;28;20291;-64
2021/03/12 05:01:43;;;;;;;2.80;2.00;;;5.30;99.90;;;-141.85;100.00;63675.41;5037351;28;20300;-63
2021/03/12 05:04:11;;;;;;;2.90;1.57;;;5.30;99.90;;;-141.85;100.00;63675.41;5035064;28;20195;-63
2021/03/12 05:06:43;;;;;;;2.50;1.50;;;5.40;99.90;;;-141.85;100.00;63675.41;5035341;28;20204;-62
2021/03/12 05:09:11;;;;;;;2.53;2.00;;;5.40;99.90;;;-141.85;100.00;63675.41;5035555;28;20181;-63
2021/03/12 05:11:41;;;;;;;2.57;2.10;;;5.40;99.90;;;-141.85;100.00;63675.41;5035206;28;20675;-63
2021/03/12 05:14:09;;;;;;;3.17;2.33;;;5.40;99.90;;;-141.85;100.00;63675.41;5034942;28;20230;-63
2021/03/12 05:16:36;;;;;;;4.13;1.70;;;5.30;99.90;;;-141.85;100.00;63675.41;5035187;28;20292;-64
2021/03/12 05:19:04;;;;;;;1.90;1.50;;;5.40;99.90;;;-141.85;100.00;63675.41;5034979;28;20202;-64
2021/03/12 05:21:31;;;;;;;3.20;1.63;;;5.40;99.90;;;-141.85;100.00;63675.41;5035195;28;20217;-63
2021/03/12 05:23:59;;;;;;;1.90;1.50;;;5.40;99.90;;;-141.85;100.00;63675.41;5035143;28;20248;-63
2021/03/12 05:26:28;;;;;;;3.87;1.70;;;5.30;99.90;;;-141.85;100.00;63675.41;5032177;28;20546;-64
2021/03/12 05:28:57;;;;;;;2.10;1.37;;;5.20;99.90;;;-141.85;100.00;63675.41;5034826;28;20229;-64
2021/03/12 05:31:25;;;;;;;2.03;1.50;;;5.10;99.90;;;-141.85;100.00;63675.41;5034876;28;20212;-64
2021/03/12 05:33:53;;;;;;;2.93;1.60;;;5.10;99.90;;;-141.85;100.00;63675.41;5034590;28;20566;-63
2021/03/12 05:36:21;;;;;;;2.43;1.63;;;5.20;99.90;;;-141.85;100.00;63675.41;5034503;28;20323;-64
2021/03/12 05:38:48;;;;;;;1.70;1.60;;;5.20;99.90;;;-141.85;100.00;63675.41;5034710;28;20236;-64
2021/03/12 05:41:18;;;;;;;7.30;2.33;;;5.20;99.90;;;-141.85;100.00;63675.41;5034442;28;20203;-64
2021/03/12 05:43:46;;;;;;;5.30;2.63;;;5.20;99.90;;;-141.85;100.00;63675.41;5034205;28;20254;-65
2021/03/12 05:46:16;;;;;;;2.80;2.00;;;5.10;99.90;;;-141.85;100.00;63675.41;5036388;28;20270;-64
2021/03/12 05:48:44;;;;;;;3.60;2.23;;;5.10;99.90;;;-141.85;100.00;63675.41;5035659;28;20663;-65
2021/03/12 05:51:12;;;;;;;3.50;2.53;;;5.20;99.90;;;-141.85;100.00;63675.41;5034976;28;20215;-65
2021/03/12 05:53:39;;;;;;;5.47;3.00;;;5.20;99.90;;;-141.85;100.00;63675.41;5034626;28;20299;-64
2021/03/12 05:56:07;;;;;;;5.00;3.47;;;5.10;99.90;;;-141.85;100.00;63675.41;5034040;28;20206;-63
2021/03/12 05:58:37;;;;;;;5.57;4.10;;;5.10;99.90;;;-141.85;100.00;63675.41;5033911;28;20691;-63
2021/03/12 06:01:04;;;;;;;2.43;1.87;;;5.20;99.90;;;-141.85;100.00;63675.41;5034018;28;20222;-65
2021/03/12 06:03:32;;;;;;;4.53;1.73;;;5.30;99.90;;;-141.85;100.00;63675.41;5033948;28;20595;-64
2021/03/12 06:06:00;;;;;;;2.80;1.67;;;5.30;99.90;;;-141.85;100.00;63675.41;5033975;28;20282;-64
2021/03/12 06:08:26;;;;;;;2.97;1.93;;;5.40;99.90;;;-141.85;100.00;63675.41;5034010;28;20640;-65
2021/03/12 06:10:54;;;;;;;2.20;1.30;;;5.50;99.90;;;-141.85;100.00;63675.41;5033843;28;20227;-65
2021/03/12 06:13:21;;;;;;;3.90;2.43;;;5.60;99.90;;;-141.85;100.00;63675.41;5033579;28;20235;-65
2021/03/12 06:15:57;;;;;;;2.30;1.40;;;5.70;99.90;;;-141.85;100.00;63675.41;5033387;28;20192;-63
2021/03/12 06:18:25;;;;;;;1.93;1.43;;;5.70;99.90;;;-141.85;100.00;63675.41;5033425;28;20242;-64
2021/03/12 06:20:54;;;;;;;2.43;1.53;;;5.70;99.90;;;-141.85;100.00;63675.41;5033917;28;20636;-64
2021/03/12 06:23:35;;;;;;;1.83;1.40;;;5.80;99.90;;;-141.85;100.00;63675.41;5033666;28;20266;-65
2021/03/12 06:26:03;;;;;;;2.27;1.70;;;5.80;99.90;;;-141.85;100.00;63675.41;5033564;28;20308;-65
2021/03/12 06:28:31;;;;;;;2.33;1.70;;;5.80;99.90;;;-141.85;100.00;63675.41;5033620;28;20251;-65
2021/03/12 06:30:58;;;;;;;2.07;1.87;;;5.90;99.90;;;-141.85;100.00;63675.41;5033959;28;20236;-65
2021/03/12 06:33:29;;;;;;;1.63;1.53;;;5.80;99.90;;;-141.85;100.00;63675.41;5033649;28;20691;-64
2021/03/12 06:35:59;;;;;;;2.53;1.33;;;5.80;99.90;;;-141.85;100.00;63675.41;5044198;28;20281;-65
2021/03/12 06:38:27;;;;;;;2.93;1.60;;;5.80;99.90;;;-141.85;100.00;63675.41;5053370;28;20657;-65
2021/03/12 06:40:54;;;;;;;2.50;1.70;;;5.60;99.90;;;-141.85;100.00;63675.41;5033119;28;20285;-65
2021/03/12 06:43:22;;;;;;;3.73;2.57;;;5.60;99.90;;;-141.85;100.00;63675.41;5033250;28;20228;-64
2021/03/12 06:45:56;;;;;;;3.70;2.53;;;5.60;99.90;;;-141.85;100.00;63675.41;5033047;28;20224;-64
2021/03/12 06:48:26;;;;;;;3.23;2.07;;;5.70;99.90;;;-141.85;100.00;63675.41;5031570;28;20229;-64
2021/03/12 06:50:56;;;;;;;2.67;1.57;;;5.80;99.90;;;-141.85;100.00;63675.41;5032880;28;20258;-64
2021/03/12 06:53:30;;;;;;;2.50;1.83;;;6.00;99.90;;;-141.85;100.00;63675.41;5033127;28;20236;-65
2021/03/12 06:56:00;;;;;;;2.57;1.90;;;6.20;99.90;;;-141.85;100.00;63675.41;5033069;28;20267;-65
2021/03/12 06:58:28;;;;;;;2.63;1.50;;;6.50;99.90;;;-141.85;100.00;63675.41;5032772;28;20297;-64
2021/03/12 07:00:55;;;;;;;2.97;1.53;;;6.60;99.90;;;-141.85;100.00;63675.41;5033312;28;20241;-65
2021/03/12 07:03:28;;;;;;;2.67;1.80;;;6.50;99.90;;;-141.85;100.00;63675.41;5033173;28;20297;-65
2021/03/12 07:06:14;;;;;;;2.93;1.97;;;6.40;99.90;;;-141.85;100.00;63675.41;5032889;28;20240;-66
2021/03/12 07:08:44;;;;;;;4.07;2.33;;;6.50;99.90;;;-141.85;100.00;63675.41;5032707;28;20246;-65
2021/03/12 07:11:23;;;;;;;5.63;3.27;;;6.40;99.90;;;-141.85;100.00;63675.41;5033190;28;20202;-65
2021/03/12 07:13:52;;;;;;;6.53;3.40;;;6.40;99.90;;;-141.85;100.00;63675.41;5032376;28;20276;-64
2021/03/12 07:16:23;;;;;;;6.17;2.87;;;6.50;99.90;;;-141.85;100.00;63675.41;5033431;28;20251;-65
2021/03/12 07:18:52;;;;;;;4.17;2.60;;;6.50;99.90;;;-141.85;100.00;63675.41;5033290;28;20189;-65
2021/03/12 07:21:22;;;;;;;2.90;2.43;;;6.50;99.90;;;-141.85;100.00;63675.41;5048306;28;20243;-66
2021/03/12 07:23:52;;;;;;;5.60;2.53;;;6.50;99.90;;;-141.85;100.00;63675.41;5033886;28;20627;-66
2021/03/12 07:26:20;;;;;;;4.20;2.37;;;6.40;99.90;;;-141.85;100.00;63675.41;5032197;28;20251;-65
2021/03/12 07:28:53;;;;;;;2.70;1.77;;;6.50;99.90;;;-141.85;100.00;63675.41;5032453;28;20283;-65
2021/03/12 07:31:25;;;;;;;2.83;1.50;;;6.60;99.90;;;-141.85;100.00;63675.41;5026755;28;20280;-65
2021/03/12 07:33:54;;;;;;;2.73;2.10;;;6.60;99.90;;;-141.85;100.00;63675.41;5031372;28;20267;-65
2021/03/12 07:36:25;;;;;;;4.43;1.90;;;6.60;99.90;;;-141.85;100.00;63675.41;5031504;28;20255;-65
2021/03/12 07:38:56;;;;;;;4.30;2.07;;;6.50;99.90;;;-141.85;100.00;63675.41;5031728;28;20251;-65
2021/03/12 07:41:24;;;;;;;2.40;1.87;;;6.60;99.90;;;-141.85;100.00;63675.41;5032140;28;20209;-65
2021/03/12 07:43:52;;;;;;;2.50;2.03;;;6.70;99.90;;;-141.85;100.00;63675.41;5032378;28;20220;-65
2021/03/12 07:46:20;;;;;;;4.33;2.20;;;6.70;99.90;;;-141.85;100.00;63675.41;5032515;28;20601;-64
2021/03/12 07:48:47;;;;;;;5.30;2.60;;;6.70;99.90;;;-141.85;100.00;63675.41;5032376;28;20232;-65
2021/03/12 07:51:16;;;;;;;4.10;2.60;;;6.70;99.90;;;-141.85;100.00;63675.41;5032429;28;20267;-62
2021/03/12 07:53:51;;;;;;;6.97;3.27;;;6.60;99.90;;;-141.85;100.00;63675.41;5032169;28;20225;-61
2021/03/12 07:56:54;;;;;;;4.77;2.63;;;6.60;99.90;;;-141.85;100.00;63675.41;5032107;28;20280;-61
2021/03/12 07:59:21;;;;;;;3.60;2.90;;;6.70;99.90;;;-141.85;100.00;63675.41;5032235;28;20227;-60
2021/03/12 08:01:51;;;;;;;4.13;3.00;;;6.80;99.90;;;-141.85;100.00;63675.41;5032390;28;20208;-61
2021/03/12 08:04:30;;;;;;;5.20;3.00;;;7.00;99.90;;;-141.85;100.00;63675.41;5031411;28;20195;-60
2021/03/12 08:06:59;;;;;;;2.93;2.43;;;7.20;99.90;;;-141.85;100.00;63675.41;5031405;28;20316;-60
2021/03/12 08:09:35;;;;;;;2.80;2.40;;;7.30;99.90;;;-141.85;100.00;63675.41;5038682;28;20204;-60
2021/03/12 08:12:04;;;;;;;3.27;2.20;;;7.40;99.90;;;-141.85;100.00;63675.41;5038690;28;20592;-61
2021/03/12 08:14:32;;;;;;;3.43;1.90;;;7.50;99.90;;;-141.85;100.00;63675.41;5037705;28;20206;-60
2021/03/12 08:17:17;;;;;;;3.73;2.00;;;7.70;99.90;;;-141.85;100.00;63675.41;5041797;28;20209;-61
2021/03/12 08:19:49;;;;;;;4.40;2.03;;;7.80;99.90;;;-141.85;100.00;63675.41;5036549;28;20193;-60
2021/03/12 08:22:45;;;;;;;2.40;1.70;;;7.80;99.90;;;-141.85;100.00;63675.41;5032955;28;20187;-61
2021/03/12 08:25:53;;;;;;;4.10;1.43;;;7.80;99.90;;;-141.85;100.00;63675.41;5027457;28;20206;-60
2021/03/12 08:28:40;;;;;;;4.03;1.80;;;7.90;99.90;;;-141.85;100.00;63675.41;5023259;28;20309;-61
2021/03/12 08:31:07;;;;;;;2.73;1.43;;;7.90;99.90;;;-141.85;100.00;63675.41;5009079;28;20241;-60
2021/03/12 08:33:38;;;;;;;3.20;1.70;;;7.90;99.90;;;-141.85;100.00;63675.41;5018380;28;20230;-60
2021/03/12 08:36:07;;;;;;;2.63;1.87;;;7.80;99.90;;;-141.85;100.00;63675.41;5016071;28;20579;-60
2021/03/12 08:38:37;;;;;;;2.50;1.60;;;7.70;99.90;;;-141.85;100.00;63675.41;5014384;28;20290;-60
2021/03/12 08:41:13;;;;;;;3.97;1.97;;;7.70;99.90;;;-141.85;100.00;63675.41;5015842;28;20241;-60
2021/03/12 08:43:55;;;;;;;3.93;2.00;;;7.80;99.90;;;-141.85;100.00;63675.41;5015804;28;20248;-60
2021/03/12 08:46:28;;;;;;;3.63;2.10;;;7.80;99.90;;;-141.85;100.00;63675.41;5016062;28;20241;-60
2021/03/12 08:49:04;;;;;;;4.87;2.60;;;7.80;99.90;;;-141.85;100.00;63675.41;5015887;28;20233;-60
2021/03/12 08:51:33;;;;;;;6.50;3.23;;;7.80;99.90;;;-141.85;100.00;63675.41;5016048;28;20183;-61
2021/03/12 08:54:02;;;;;;;3.87;2.47;;;7.90;99.90;;;-141.85;100.00;63675.41;5015739;28;20242;-60
2021/03/12 08:56:32;;;;;;;4.07;2.00;;;8.00;99.90;;;-141.85;100.00;63675.41;5015487;28;20245;-60
2021/03/12 08:59:01;;;;;;;4.13;1.87;;;8.20;99.90;;;-141.85;100.00;63675.41;5015567;28;20187;-60
2021/03/12 09:01:30;;;;;;;3.43;1.77;;;8.40;99.90;;;-141.85;100.00;63675.41;5015692;28;20230;-60
2021/03/12 09:04:00;;;;;;;4.10;2.17;;;8.60;99.90;;;-141.85;100.00;63675.41;5015596;28;20203;-61
2021/03/12 09:06:29;;;;;;;4.63;2.17;;;8.50;99.90;;;-141.85;100.00;63675.41;5015427;28;20286;-65
2021/03/12 09:09:07;;;;;;;4.47;2.10;;;8.40;99.90;;;-141.85;100.00;63675.41;5015080;28;20235;-66
2021/03/12 09:11:36;;;;;;;4.07;1.80;;;8.40;99.90;;;-141.85;100.00;63675.41;5015176;28;20237;-66
2021/03/12 09:14:05;;;;;;;3.97;1.90;;;8.30;99.90;;;-141.85;100.00;63675.41;5014958;28;20206;-66
2021/03/12 09:16:37;;;;;;;5.00;2.00;;;8.30;99.90;;;-141.85;100.00;63675.41;5024177;28;20214;-64
2021/03/12 09:19:11;;;;;;;5.03;1.90;;;8.30;99.90;;;-141.85;100.00;63675.41;5034060;28;20638;-65
2021/03/12 09:21:39;;;;;;;3.67;1.80;;;8.30;99.90;;;-141.85;100.00;63675.41;5032759;28;20729;-65
2021/03/12 09:24:07;;;;;;;3.30;2.30;;;8.30;99.90;;;-141.85;100.00;63675.41;5034501;28;20210;-65
2021/03/12 09:26:37;;;;;;;4.73;1.73;;;8.30;99.90;;;-141.85;100.00;63675.41;5034564;28;20256;-66
2021/03/12 09:29:06;;;;;;;4.40;1.80;;;8.30;99.90;;;-141.85;100.00;63675.41;5033204;28;20222;-64
2021/03/12 09:31:37;;;;;;;3.97;1.63;;;8.40;99.90;;;-141.85;100.00;63675.41;5034019;28;20202;-65
2021/03/12 09:34:08;;;;;;;3.90;1.90;;;8.50;99.90;;;-141.85;100.00;63675.41;5029865;28;20683;-65
2021/03/12 09:36:38;;;;;;;3.07;1.87;;;8.70;99.90;;;-141.85;100.00;63675.41;5014896;28;20313;-64
2021/03/12 09:39:13;;;;;;;3.97;1.67;;;9.10;99.90;;;-141.85;100.00;63675.41;5026288;28;20204;-66
2021/03/12 09:41:43;;;;;;;2.70;1.47;;;9.20;99.90;;;-141.85;100.00;63675.41;5034278;28;20210;-67
2021/03/12 09:44:12;;;;;;;4.03;1.57;;;9.30;99.90;;;-141.85;100.00;63675.41;5030730;28;20256;-60
2021/03/12 09:46:46;;;;;;;4.47;1.80;;;9.20;99.90;;;-141.85;100.00;63675.41;5014216;28;20194;-60
2021/03/12 09:49:32;;;;;;;4.03;1.90;;;9.30;99.90;;;-141.85;100.00;63675.41;5050851;28;20236;-61
2021/03/12 09:52:08;;;;;;;3.80;1.97;;;9.10;99.90;;;-141.85;100.00;63675.41;5051400;28;20263;-69
2021/03/12 09:54:38;;;;;;;6.60;2.33;;;8.90;99.90;;;-141.85;100.00;63675.41;5050995;28;20185;-71
2021/03/12 09:57:08;;;;;;;4.27;2.00;;;8.80;99.90;;;-141.85;100.00;63675.41;5051115;28;20233;-66
2021/03/12 09:59:38;;;;;;;3.93;1.70;;;8.80;99.90;;;-141.85;100.00;63675.41;5051105;28;20259;-68
2021/03/12 10:02:18;;;;;;;2.70;1.50;;;8.80;99.90;;;-141.85;100.00;63675.41;5051348;28;20178;-68
2021/03/12 10:04:55;;;;;;;3.73;1.70;;;8.80;99.90;;;-141.85;100.00;63675.41;5051187;28;20201;-67
2021/03/12 10:07:42;;;;;;;3.60;1.50;;;8.80;99.90;;;-141.85;100.00;63675.41;5050961;28;20236;-68
2021/03/12 10:10:21;;;;;;;2.80;1.67;;;8.90;99.90;;;-141.85;100.00;63675.41;5050989;28;20600;-67
2021/03/12 10:12:52;;;;;;;3.50;1.30;;;8.90;99.90;;;-141.85;100.00;63675.41;5048032;28;20625;-66
2021/03/12 10:15:33;;;;;;;2.17;1.40;;;8.90;99.90;;;-141.85;100.00;63675.41;5039018;28;20198;-66
2021/03/12 10:18:01;;;;;;;5.87;1.83;;;8.90;99.90;;;-141.85;100.00;63675.41;5042947;28;20641;-66